Time;durP1;ratioP1;P1;durP2;ratioP2;P2;SDS_P1;SDS_P2;PMS_P1;PMS_P2;Temp;Humidity;BMP_temperature;BMP_pressure;BME280_temperature;BME280_humidity;BME280_pressure;Samples;Min_cycle;Max_cycle;Signal;HPM_P1;HPM_P2
2022/07/27 00:01:06;;;;;;;0.00;0.00;;;;;;;18.32;52.17;101680.38;7363658;19;20018;-64
2022/07/27 00:03:32;;;;;;;0.00;0.00;;;;;;;18.32;52.57;101676.88;7350488;19;20010;-64
2022/07/27 00:05:57;;;;;;;0.00;0.00;;;;;;;18.32;52.89;101682.19;7361775;19;20010;-64
2022/07/27 00:08:23;;;;;;;0.00;0.00;;;;;;;18.28;52.32;101697.28;7364696;19;20095;-64
2022/07/27 00:10:49;;;;;;;0.00;0.00;;;;;;;18.28;52.14;101683.22;7358016;19;20010;-64
2022/07/27 00:13:15;;;;;;;0.00;0.00;;;;;;;18.27;52.04;101692.94;7360411;19;20011;-64
2022/07/27 00:15:41;;;;;;;0.10;0.10;;;;;;;18.26;52.28;101685.91;7358528;19;20037;-64
2022/07/27 00:18:07;;;;;;;0.00;0.00;;;;;;;18.25;52.54;101683.31;7362289;19;20006;-64
2022/07/27 00:20:32;;;;;;;0.00;0.00;;;;;;;18.15;53.04;101665.19;7364214;19;20556;-64
2022/07/27 00:22:58;;;;;;;0.00;0.00;;;;;;;18.24;53.34;101687.75;7365850;19;20024;-64
2022/07/27 00:25:26;;;;;;;0.00;0.00;;;;;;;18.25;53.70;101680.69;7366990;19;20007;-63
2022/07/27 00:27:52;;;;;;;0.08;0.08;;;;;;;18.25;52.99;101684.22;7363927;19;20018;-64
2022/07/27 00:30:17;;;;;;;0.00;0.00;;;;;;;18.25;52.64;101663.06;7365573;19;20022;-64
2022/07/27 00:32:43;;;;;;;0.00;0.00;;;;;;;18.25;53.08;101667.44;7366212;19;20052;-64
2022/07/27 00:35:09;;;;;;;0.00;0.00;;;;;;;18.24;53.16;101666.59;7362597;19;20006;-64
2022/07/27 00:37:34;;;;;;;0.10;0.10;;;;;;;18.23;53.75;101674.59;7365231;19;20439;-64
2022/07/27 00:40:01;;;;;;;0.00;0.00;;;;;;;18.14;53.89;101657.31;7362317;19;20078;-64
2022/07/27 00:42:27;;;;;;;0.00;0.00;;;;;;;18.21;53.55;101676.44;7365320;19;20763;-64
2022/07/27 00:44:55;;;;;;;0.03;0.03;;;;;;;18.22;53.83;101660.53;7366379;19;20038;-64
2022/07/27 00:47:21;;;;;;;0.00;0.00;;;;;;;18.21;53.82;101674.66;7364119;19;20686;-64
2022/07/27 00:49:47;;;;;;;0.00;0.00;;;;;;;18.19;53.34;101663.28;7365221;19;20014;-64
2022/07/27 00:52:14;;;;;;;0.00;0.00;;;;;;;18.21;53.52;101666.72;7362403;19;20002;-64
2022/07/27 00:54:41;;;;;;;0.00;0.00;;;;;;;18.19;53.60;101663.28;7364914;19;20037;-64
2022/07/27 00:57:09;;;;;;;0.00;0.00;;;;;;;18.21;52.95;101660.59;7363997;19;20369;-64
2022/07/27 00:59:35;;;;;;;0.00;0.00;;;;;;;18.17;53.70;101654.56;7364490;19;20007;-64
2022/07/27 01:02:00;;;;;;;0.00;0.00;;;;;;;18.16;53.88;101647.53;7365552;19;20030;-64
2022/07/27 01:04:26;;;;;;;0.05;0.05;;;;;;;18.15;54.12;101653.75;7364811;19;20042;-64
2022/07/27 01:06:51;;;;;;;0.00;0.00;;;;;;;18.13;54.52;101642.38;7365079;19;20841;-64
2022/07/27 01:12:01;;;;;;;0.00;0.00;;;;;;;18.10;53.58;101639.88;7363185;19;20013;-64
2022/07/27 01:14:26;;;;;;;0.03;0.03;;;;;;;18.05;53.30;101641.81;7361086;19;20561;-64
2022/07/27 01:16:52;;;;;;;0.00;0.00;;;;;;;17.99;53.67;101640.25;7365374;19;20010;-64
2022/07/27 01:19:17;;;;;;;0.00;0.00;;;;;;;17.95;53.75;101637.81;7362452;19;20002;-64
2022/07/27 01:21:43;;;;;;;0.10;0.10;;;;;;;17.91;54.15;101634.41;7364493;19;20078;-64
2022/07/27 01:24:09;;;;;;;0.00;0.00;;;;;;;17.87;54.36;101635.44;7361632;19;20010;-64
2022/07/27 01:26:37;;;;;;;0.10;0.10;;;;;;;17.83;54.87;101623.28;7363523;19;20624;-63
2022/07/27 01:29:03;;;;;;;0.00;0.00;;;;;;;17.81;54.96;101625.97;7363025;19;20144;-64
2022/07/27 01:31:29;;;;;;;0.10;0.10;;;;;;;17.80;54.68;101631.34;7364552;19;20014;-64
2022/07/27 01:33:55;;;;;;;0.00;0.00;;;;;;;17.68;54.85;101611.47;7363077;19;20358;-64
2022/07/27 01:36:20;;;;;;;0.10;0.10;;;;;;;17.77;54.75;101627.00;7364883;19;20089;-64
2022/07/27 01:38:46;;;;;;;0.00;0.00;;;;;;;17.75;54.53;101631.50;7361305;19;20021;-63
2022/07/27 01:41:12;;;;;;;0.00;0.00;;;;;;;17.72;54.37;101631.56;7365587;19;20018;-64
2022/07/27 01:43:38;;;;;;;0.00;0.00;;;;;;;17.73;54.99;101628.03;7360350;19;20070;-63
2022/07/27 01:46:03;;;;;;;0.00;0.00;;;;;;;17.72;54.66;101631.56;7365231;19;20349;-64
2022/07/27 01:48:29;;;;;;;0.00;0.00;;;;;;;17.58;54.71;101604.81;7361969;19;20100;-64
2022/07/27 01:50:55;;;;;;;0.00;0.00;;;;;;;17.59;55.36;101609.19;7365125;19;20021;-64
2022/07/27 01:53:21;;;;;;;0.00;0.00;;;;;;;17.70;55.04;101624.63;7362831;19;20002;-64
2022/07/27 01:55:47;;;;;;;0.05;0.05;;;;;;;17.69;55.25;101629.06;7365034;19;20018;-64
2022/07/27 01:58:13;;;;;;;0.10;0.10;;;;;;;17.69;54.91;101625.53;7352387;19;20006;-64
2022/07/27 02:00:39;;;;;;;0.00;0.00;;;;;;;17.67;55.06;101628.25;7361142;19;20011;-64
2022/07/27 02:03:06;;;;;;;0.10;0.10;;;;;;;17.67;55.14;101627.38;7359040;19;20014;-64
2022/07/27 02:05:32;;;;;;;0.00;0.00;;;;;;;17.64;55.62;101628.38;7360246;19;20029;-64
2022/07/27 02:07:57;;;;;;;0.00;0.00;;;;;;;17.65;55.56;101624.81;7363019;19;20527;-64
2022/07/27 02:10:23;;;;;;;0.00;0.00;;;;;;;17.61;55.81;101624.06;7362348;19;20014;-64
2022/07/27 02:12:50;;;;;;;0.00;0.00;;;;;;;17.57;55.87;101617.16;7359441;19;20014;-64
2022/07/27 02:15:23;;;;;;;0.00;0.00;;;;;;;17.62;55.28;101632.84;7358845;19;20022;-64
2022/07/27 02:17:48;;;;;;;0.03;0.03;;;;;;;17.57;55.86;101616.28;7361235;19;20020;-64
2022/07/27 02:20:18;;;;;;;0.10;0.10;;;;;;;17.60;55.88;101624.13;7360482;19;20011;-64
2022/07/27 02:22:44;;;;;;;0.00;0.00;;;;;;;17.51;55.64;101612.09;7357203;19;20030;-64
2022/07/27 02:25:12;;;;;;;0.00;0.00;;;;;;;17.58;55.25;101620.66;7360006;19;20018;-63
2022/07/27 02:27:38;;;;;;;;;;;;;;;17.59;53.76;101619.75;7361724;19;20015;-64
2022/07/27 02:30:05;;;;;;;0.00;0.00;;;;;;;17.46;55.20;101602.63;7359388;19;20227;-64
2022/07/27 02:32:30;;;;;;;0.10;0.10;;;;;;;17.50;55.61;101609.53;7362044;19;20011;-64
2022/07/27 02:34:56;;;;;;;0.08;0.08;;;;;;;17.47;55.44;101620.19;7360842;19;20013;-64
2022/07/27 02:37:21;;;;;;;0.03;0.03;;;;;;;17.44;55.64;101604.47;7360646;19;20009;-64
2022/07/27 02:39:47;;;;;;;0.00;0.00;;;;;;;17.42;56.10;101596.59;7361282;19;20014;-64
2022/07/27 02:42:13;;;;;;;0.00;0.00;;;;;;;17.36;56.24;101587.13;7358501;19;20052;-64
2022/07/27 02:44:38;;;;;;;0.08;0.08;;;;;;;17.38;56.24;101585.28;7360848;19;20018;-64
2022/07/27 02:47:04;;;;;;;0.10;0.10;;;;;;;17.37;56.43;101588.84;7360930;19;20017;-64
2022/07/27 02:49:29;;;;;;;0.10;0.10;;;;;;;17.36;56.29;101597.69;7362042;19;20018;-64
2022/07/27 02:51:54;;;;;;;0.10;0.10;;;;;;;17.35;56.44;101593.34;7359555;19;20013;-64
2022/07/27 02:54:23;;;;;;;0.00;0.00;;;;;;;17.33;56.22;101595.16;7360926;19;20828;-64
2022/07/27 02:56:52;;;;;;;0.10;0.10;;;;;;;17.31;56.25;101599.63;7361010;19;21093;-64
2022/07/27 02:59:18;;;;;;;0.10;0.10;;;;;;;17.27;56.80;101592.72;7358853;19;20018;-64
2022/07/27 03:01:45;;;;;;;0.10;0.10;;;;;;;17.21;56.59;101587.69;7360602;19;20010;-64
2022/07/27 03:04:10;;;;;;;0.00;0.00;;;;;;;17.26;57.10;101593.66;7350259;19;20473;-64
2022/07/27 03:06:36;;;;;;;0.00;0.00;;;;;;;17.21;56.74;101589.47;7359516;19;20025;-64
2022/07/27 03:09:02;;;;;;;0.00;0.00;;;;;;;17.12;57.14;101573.03;7359645;19;20014;-64
2022/07/27 03:11:28;;;;;;;0.00;0.00;;;;;;;17.19;57.03;101591.31;7358414;19;20011;-64
2022/07/27 03:13:53;;;;;;;0.00;0.00;;;;;;;17.17;57.33;101590.50;7361348;19;20014;-64
2022/07/27 03:16:19;;;;;;;0.00;0.00;;;;;;;17.13;57.33;101589.72;7368615;19;20517;-64
2022/07/27 03:18:44;;;;;;;0.00;0.00;;;;;;;17.10;57.35;101598.63;7362850;19;20017;-63
2022/07/27 03:21:09;;;;;;;0.00;0.00;;;;;;;17.06;57.04;101582.97;7364428;19;20017;-64
2022/07/27 03:23:35;;;;;;;0.03;0.03;;;;;;;16.98;57.34;101582.34;7367106;19;20018;-64
2022/07/27 03:26:00;;;;;;;0.00;0.00;;;;;;;16.98;56.99;101585.00;7367951;19;20011;-65
2022/07/27 03:28:26;;;;;;;0.00;0.00;;;;;;;16.95;56.99;101585.13;7367506;19;20033;-63
2022/07/27 03:30:51;;;;;;;0.10;0.10;;;;;;;16.88;57.22;101587.13;7368892;19;20011;-64
2022/07/27 03:33:17;;;;;;;0.00;0.00;;;;;;;16.79;57.45;101585.66;7369517;19;20014;-64
2022/07/27 03:35:42;;;;;;;0.00;0.00;;;;;;;16.83;57.53;101589.06;7364310;19;20010;-64
2022/07/27 03:38:07;;;;;;;0.00;0.00;;;;;;;16.78;57.71;101583.94;7368465;19;20023;-64
2022/07/27 03:40:33;;;;;;;0.00;0.00;;;;;;;16.73;57.49;101588.50;7366423;19;20014;-64
2022/07/27 03:42:59;;;;;;;0.00;0.00;;;;;;;16.65;57.74;101582.59;7367503;19;20014;-63
2022/07/27 03:45:25;;;;;;;0.00;0.00;;;;;;;16.53;57.63;101569.81;7362353;19;20010;-64
2022/07/27 03:47:50;;;;;;;0.00;0.00;;;;;;;16.62;57.79;101587.94;7364983;19;20028;-64
2022/07/27 03:50:16;;;;;;;0.00;0.00;;;;;;;16.57;57.40;101593.41;7366888;19;20010;-64
2022/07/27 03:52:41;;;;;;;0.00;0.00;;;;;;;16.53;57.45;101588.28;7366181;19;20086;-63
2022/07/27 03:55:07;;;;;;;0.00;0.00;;;;;;;16.48;57.36;101579.66;7368173;19;20021;-64
2022/07/27 03:57:32;;;;;;;0.10;0.10;;;;;;;16.44;57.92;101584.16;7365031;19;20018;-64
2022/07/27 03:59:58;;;;;;;0.00;0.00;;;;;;;16.40;57.51;101584.31;7365776;19;20019;-64
2022/07/27 04:02:23;;;;;;;0.00;0.00;;;;;;;16.26;57.69;101577.72;7366719;19;20032;-64
2022/07/27 04:04:49;;;;;;;0.00;0.00;;;;;;;16.28;58.12;101583.81;7366954;19;21002;-64
2022/07/27 04:07:14;;;;;;;0.00;0.00;;;;;;;16.22;57.88;101584.00;7366706;19;20039;-64
2022/07/27 04:09:40;;;;;;;0.00;0.00;;;;;;;16.13;58.34;101584.31;7367829;19;20015;-64
2022/07/27 04:12:05;;;;;;;0.00;0.00;;;;;;;16.05;58.28;101573.13;7368017;19;20042;-64
2022/07/27 04:14:31;;;;;;;0.00;0.00;;;;;;;16.06;58.18;101577.47;7365684;19;20010;-64
2022/07/27 04:16:56;;;;;;;0.00;0.00;;;;;;;16.02;58.19;101578.50;7367555;19;20010;-64
2022/07/27 04:19:22;;;;;;;0.00;0.00;;;;;;;15.99;58.05;101578.59;7366642;19;20013;-64
2022/07/27 04:21:47;;;;;;;0.00;0.00;;;;;;;15.96;58.46;101576.03;7360314;19;20122;-64
2022/07/27 04:24:12;;;;;;;0.00;0.00;;;;;;;15.93;58.07;101576.16;7368443;19;20006;-64
2022/07/27 04:26:38;;;;;;;0.00;0.00;;;;;;;15.78;58.29;101553.78;7365290;19;20014;-64
2022/07/27 04:29:04;;;;;;;0.00;0.00;;;;;;;15.87;58.81;101571.94;7365348;19;20485;-64
2022/07/27 04:31:30;;;;;;;0.00;0.00;;;;;;;15.85;58.29;101567.63;7366706;19;20018;-64
2022/07/27 04:33:56;;;;;;;0.00;0.00;;;;;;;15.85;58.47;101572.88;7365418;19;20014;-64
2022/07/27 04:36:21;;;;;;;0.00;0.00;;;;;;;15.82;58.88;101574.72;7367717;19;20014;-65
2022/07/27 04:38:46;;;;;;;0.00;0.00;;;;;;;15.80;58.82;101579.16;7363435;19;20250;-63
2022/07/27 04:41:12;;;;;;;0.00;0.00;;;;;;;15.80;58.68;101571.25;7364097;19;20021;-64
2022/07/27 04:43:37;;;;;;;0.00;0.00;;;;;;;15.80;59.22;101576.50;7365085;19;20035;-64
2022/07/27 04:46:03;;;;;;;0.00;0.00;;;;;;;15.80;59.12;101571.25;7367906;19;20078;-64
2022/07/27 04:48:31;;;;;;;0.00;0.00;;;;;;;15.82;59.40;101579.97;7365539;19;20014;-64
2022/07/27 04:50:56;;;;;;;;;;;;;;;15.86;57.06;101569.34;7366174;19;20031;-63
2022/07/27 04:53:22;;;;;;;0.00;0.00;;;;;;;15.86;59.29;101569.34;7366543;19;19938;-64
2022/07/27 04:55:47;;;;;;;0.00;0.00;;;;;;;15.77;59.65;101558.19;7366421;19;20032;-64
2022/07/27 04:58:13;;;;;;;0.00;0.00;;;;;;;15.90;59.39;101570.97;7364057;19;20014;-64
2022/07/27 05:00:39;;;;;;;0.00;0.00;;;;;;;15.86;59.38;101564.06;7364762;19;21436;-64
2022/07/27 05:03:04;;;;;;;0.00;0.00;;;;;;;15.84;59.91;101561.50;7363793;19;20011;-64
2022/07/27 05:05:30;;;;;;;0.00;0.00;;;;;;;15.96;59.71;101570.78;7363819;19;20034;-64
2022/07/27 05:07:56;;;;;;;0.00;0.00;;;;;;;15.96;60.20;101570.78;7365055;19;20010;-65
2022/07/27 05:10:21;;;;;;;0.00;0.00;;;;;;;16.01;60.25;101580.25;7364854;19;20455;-64
2022/07/27 05:12:48;;;;;;;0.00;0.00;;;;;;;16.05;60.07;101581.88;7363405;19;20014;-64
2022/07/27 05:15:15;;;;;;;0.00;0.00;;;;;;;16.09;60.02;101582.66;7364703;19;20074;-65
2022/07/27 05:17:40;;;;;;;0.00;0.00;;;;;;;16.13;60.00;101586.06;7366743;19;20107;-64
2022/07/27 05:20:07;;;;;;;0.00;0.00;;;;;;;16.15;59.89;101582.47;7363736;19;20023;-64
2022/07/27 05:22:32;;;;;;;0.00;0.00;;;;;;;16.12;59.81;101569.41;7365667;19;20577;-64
2022/07/27 05:24:58;;;;;;;0.00;0.00;;;;;;;16.22;60.34;101578.75;7363386;19;20006;-64
2022/07/27 05:27:23;;;;;;;0.10;0.10;;;;;;;16.25;60.16;101576.00;7366432;19;20048;-64
2022/07/27 05:29:49;;;;;;;0.00;0.00;;;;;;;16.29;59.95;101574.97;7365022;19;20010;-64
2022/07/27 05:32:14;;;;;;;0.00;0.00;;;;;;;16.34;60.35;101577.47;7365573;19;20074;-64
2022/07/27 05:34:40;;;;;;;0.08;0.08;;;;;;;16.40;60.17;101576.41;7363590;19;20047;-64
2022/07/27 05:37:07;;;;;;;0.00;0.00;;;;;;;16.41;60.29;101572.84;7360983;19;20040;-64
2022/07/27 05:39:32;;;;;;;0.00;0.00;;;;;;;16.49;60.44;101587.50;7365723;19;20014;-64
2022/07/27 05:41:58;;;;;;;0.00;0.00;;;;;;;16.54;60.47;101582.09;7363974;19;20017;-64
2022/07/27 05:44:23;;;;;;;0.00;0.00;;;;;;;16.59;60.53;101582.81;7363287;19;20010;-64
2022/07/27 05:46:48;;;;;;;0.00;0.00;;;;;;;16.62;60.19;101569.50;7362604;19;20359;-64
2022/07/27 05:49:14;;;;;;;0.10;0.10;;;;;;;16.71;60.36;101582.41;7362763;19;20110;-64
2022/07/27 05:51:39;;;;;;;0.00;0.00;;;;;;;16.75;60.07;101581.38;7365486;19;20014;-64
2022/07/27 05:54:05;;;;;;;0.00;0.00;;;;;;;16.78;60.45;101573.38;7362392;19;20006;-64
2022/07/27 05:56:30;;;;;;;0.05;0.05;;;;;;;16.85;60.41;101581.94;7363711;19;20616;-64
2022/07/27 05:58:56;;;;;;;0.00;0.00;;;;;;;16.90;60.05;101581.78;7352905;19;20042;-64
2022/07/27 06:01:21;;;;;;;0.08;0.08;;;;;;;16.95;60.41;101579.84;7364605;19;20707;-65
2022/07/27 06:03:47;;;;;;;0.10;0.10;;;;;;;16.91;60.02;101572.94;7361512;19;20762;-64
2022/07/27 06:08:56;;;;;;;0.03;0.03;;;;;;;17.07;60.39;101582.03;7362101;19;20106;-64
2022/07/27 06:11:22;;;;;;;0.10;0.10;;;;;;;17.12;60.38;101582.72;7359544;19;20097;-64
2022/07/27 06:13:49;;;;;;;0.00;0.00;;;;;;;17.15;59.94;101580.00;7360681;19;20010;-64
2022/07/27 06:16:15;;;;;;;0.00;0.00;;;;;;;17.19;60.44;101581.63;7358483;19;20033;-63
2022/07/27 06:18:40;;;;;;;0.10;0.10;;;;;;;17.23;60.46;101580.56;7361018;19;20010;-64
2022/07/27 06:21:06;;;;;;;0.00;0.00;;;;;;;17.27;60.49;101576.91;7362475;19;20504;-63
2022/07/27 06:23:31;;;;;;;0.00;0.00;;;;;;;17.28;60.44;101572.47;7360006;19;20025;-64
2022/07/27 06:25:57;;;;;;;0.00;0.00;;;;;;;17.35;60.35;101574.00;7362542;19;20034;-64
2022/07/27 06:28:22;;;;;;;0.00;0.00;;;;;;;17.42;60.03;101579.91;7361633;19;20019;-64
2022/07/27 06:30:48;;;;;;;0.00;0.00;;;;;;;17.46;60.50;101577.09;7361672;19;20149;-64
2022/07/27 06:33:14;;;;;;;0.08;0.08;;;;;;;17.51;60.04;101574.28;7358632;19;20007;-64
2022/07/27 06:35:39;;;;;;;0.00;0.00;;;;;;;17.56;60.29;101577.59;7360364;19;20006;-64
2022/07/27 06:38:05;;;;;;;0.10;0.10;;;;;;;17.60;60.12;101558.09;7355930;19;20082;-64
2022/07/27 06:40:31;;;;;;;0.10;0.10;;;;;;;17.64;60.40;101559.69;7351671;19;21520;-64
2022/07/27 06:42:57;;;;;;;0.00;0.00;;;;;;;17.72;60.20;101568.16;7359483;19;20017;-64
2022/07/27 06:45:22;;;;;;;0.10;0.10;;;;;;;17.77;59.83;101560.97;7361358;19;20035;-64
2022/07/27 06:47:49;;;;;;;0.10;0.10;;;;;;;17.82;59.88;101561.63;7363830;19;20351;-63
2022/07/27 06:50:16;;;;;;;0.00;0.00;;;;;;;17.90;59.77;101561.34;7367563;19;20044;-64
2022/07/27 06:52:42;;;;;;;0.10;0.10;;;;;;;17.96;59.56;101560.25;7368874;19;20102;-64
2022/07/27 06:55:08;;;;;;;0.00;0.00;;;;;;;18.02;59.61;101565.28;7369261;19;20010;-65
2022/07/27 06:57:33;;;;;;;0.00;0.00;;;;;;;18.06;59.41;101566.88;7368343;19;20026;-64
2022/07/27 06:59:59;;;;;;;0.10;0.10;;;;;;;18.10;59.51;101557.91;7366276;19;20006;-64
2022/07/27 07:02:24;;;;;;;0.00;0.00;;;;;;;18.16;59.57;101557.66;7368843;19;20097;-64
2022/07/27 07:04:49;;;;;;;0.00;0.00;;;;;;;18.23;59.22;101561.78;7369798;19;20433;-64
2022/07/27 07:07:15;;;;;;;0.00;0.00;;;;;;;18.28;59.24;101559.78;7366436;19;20018;-64
2022/07/27 07:09:40;;;;;;;0.10;0.10;;;;;;;18.36;58.94;101562.13;7365055;19;20622;-64
2022/07/27 07:12:06;;;;;;;0.10;0.10;;;;;;;18.42;59.16;101559.22;7367268;19;20022;-64
2022/07/27 07:14:31;;;;;;;0.00;0.00;;;;;;;18.49;57.97;101565.13;7367066;19;20010;-64
2022/07/27 07:16:59;;;;;;;0.10;0.10;;;;;;;18.56;58.36;101566.59;7365219;19;20007;-64
2022/07/27 07:19:24;;;;;;;0.10;0.10;;;;;;;18.61;58.22;101554.03;7364272;19;20459;-63
2022/07/27 07:21:50;;;;;;;0.10;0.10;;;;;;;18.57;57.68;101553.31;7366482;19;20022;-64
2022/07/27 07:24:16;;;;;;;0.00;0.00;;;;;;;18.70;57.60;101553.66;7367451;19;20467;-63
2022/07/27 07:26:41;;;;;;;0.00;0.00;;;;;;;18.78;57.39;101559.50;7369003;19;20014;-65
2022/07/27 07:29:07;;;;;;;0.00;0.00;;;;;;;18.75;57.17;101534.94;7368862;19;20026;-64
2022/07/27 07:31:33;;;;;;;0.10;0.10;;;;;;;18.89;56.41;101543.13;7368448;19;20006;-63
2022/07/27 07:33:58;;;;;;;0.00;0.00;;;;;;;18.94;55.85;101541.16;7366218;19;20803;-64
2022/07/27 07:36:24;;;;;;;0.10;0.10;;;;;;;18.95;56.06;101542.84;7368175;19;20010;-64
2022/07/27 07:38:50;;;;;;;0.00;0.00;;;;;;;19.03;55.47;101551.34;7361256;19;20030;-64
2022/07/27 07:41:15;;;;;;;0.00;0.00;;;;;;;19.07;54.39;101552.06;7368163;19;20002;-64
2022/07/27 07:43:41;;;;;;;0.10;0.10;;;;;;;19.11;54.91;101553.63;7367122;19;20051;-63
2022/07/27 07:46:07;;;;;;;0.10;0.10;;;;;;;19.12;54.50;101544.78;7367889;19;20027;-64
2022/07/27 07:48:33;;;;;;;0.00;0.00;;;;;;;19.17;53.73;101558.66;7366919;19;20023;-64
2022/07/27 07:50:59;;;;;;;0.10;0.10;;;;;;;19.19;53.80;101556.78;7366554;19;20015;-64
2022/07/27 07:53:24;;;;;;;0.00;0.00;;;;;;;19.21;53.34;101554.06;7365778;19;20031;-63
2022/07/27 07:55:51;;;;;;;0.10;0.10;;;;;;;19.22;53.94;101551.38;7368011;19;20010;-64
2022/07/27 07:58:17;;;;;;;0.10;0.10;;;;;;;19.24;53.28;101554.81;7364272;19;20023;-63
2022/07/27 08:00:43;;;;;;;0.05;0.05;;;;;;;19.24;54.34;101548.66;7364173;19;20018;-64
2022/07/27 08:03:08;;;;;;;0.10;0.10;;;;;;;19.26;53.87;101555.63;7364477;19;20018;-64
2022/07/27 08:05:34;;;;;;;0.05;0.05;;;;;;;19.24;54.04;101544.22;7368372;19;20014;-64
2022/07/27 08:07:59;;;;;;;0.03;0.03;;;;;;;19.32;53.22;101552.69;7361877;19;20030;-64
2022/07/27 08:10:26;;;;;;;0.00;0.00;;;;;;;19.35;53.61;101547.22;7367389;19;20081;-64
2022/07/27 08:12:55;;;;;;;0.00;0.00;;;;;;;19.40;53.95;101552.31;7364429;19;20118;-64
2022/07/27 08:15:21;;;;;;;0.00;0.00;;;;;;;19.39;53.51;101551.47;7366397;19;20018;-64
2022/07/27 08:17:47;;;;;;;0.03;0.03;;;;;;;19.41;53.20;101557.56;7358650;19;20011;-64
2022/07/27 08:20:14;;;;;;;0.10;0.10;;;;;;;19.41;53.44;101546.97;7360844;19;20020;-64
2022/07/27 08:22:40;;;;;;;0.10;0.10;;;;;;;19.39;53.50;101543.50;7361577;19;20439;-64
2022/07/27 08:25:06;;;;;;;0.00;0.00;;;;;;;19.52;53.93;101556.22;7363717;19;20015;-64
2022/07/27 08:27:32;;;;;;;0.10;0.10;;;;;;;19.57;53.74;101556.84;7362860;19;20090;-64
2022/07/27 08:29:57;;;;;;;0.10;0.10;;;;;;;19.55;53.53;101540.16;7362138;19;20078;-64
2022/07/27 08:32:23;;;;;;;0.10;0.10;;;;;;;19.70;53.31;101545.63;7362183;19;20007;-64
2022/07/27 08:34:50;;;;;;;0.10;0.10;;;;;;;19.75;53.17;101540.09;7364189;19;20024;-64
2022/07/27 08:37:15;;;;;;;0.10;0.10;;;;;;;19.87;53.05;101536.88;7360235;19;20052;-64
2022/07/27 08:39:41;;;;;;;0.10;0.10;;;;;;;19.96;53.65;101533.75;7362145;19;20014;-64
2022/07/27 08:42:09;;;;;;;0.10;0.10;;;;;;;20.16;52.77;101543.38;7361104;19;20929;-64
2022/07/27 08:44:38;;;;;;;0.00;0.00;;;;;;;20.35;51.27;101545.13;7359593;19;20033;-64
2022/07/27 08:47:03;;;;;;;0.10;0.10;;;;;;;20.42;51.01;101547.41;7364179;19;20029;-64
2022/07/27 08:49:30;;;;;;;0.10;0.10;;;;;;;20.53;51.58;101543.38;7362293;19;21084;-64
2022/07/27 08:51:56;;;;;;;0.10;0.10;;;;;;;20.62;51.18;101542.91;7359362;19;20049;-64
2022/07/27 08:54:24;;;;;;;0.10;0.10;;;;;;;20.75;50.69;101548.47;7360285;19;20458;-64
2022/07/27 08:56:49;;;;;;;0.10;0.10;;;;;;;20.79;51.19;101548.22;7361122;19;20006;-64
2022/07/27 08:59:14;;;;;;;0.10;0.10;;;;;;;20.84;50.10;101550.63;7361813;19;20037;-64
2022/07/27 09:01:40;;;;;;;0.10;0.10;;;;;;;20.87;50.37;101547.81;7361459;19;20003;-64
2022/07/27 09:04:09;;;;;;;0.00;0.00;;;;;;;20.94;50.94;101547.41;7363598;19;20883;-65
2022/07/27 09:06:50;;;;;;;0.00;0.00;;;;;;;21.03;51.27;101547.84;7354145;19;20010;-64
2022/07/27 09:09:18;;;;;;;0.00;0.00;;;;;;;21.04;50.15;101549.59;7365981;19;20034;-64
2022/07/27 09:12:00;;;;;;;0.10;0.10;;;;;;;21.03;50.43;101547.84;7362260;19;20667;-64
2022/07/27 09:14:30;;;;;;;0.05;0.05;;;;;;;21.05;49.92;101551.31;7364816;19;20111;-65
2022/07/27 09:16:56;;;;;;;0.10;0.10;;;;;;;21.01;49.58;101547.09;7364165;19;20538;-64
2022/07/27 09:19:21;;;;;;;0.10;0.10;;;;;;;20.98;50.20;101548.97;7367066;19;20078;-65
2022/07/27 09:21:47;;;;;;;0.10;0.10;;;;;;;20.97;50.31;101539.28;7362694;19;20102;-64
2022/07/27 09:24:14;;;;;;;0.10;0.10;;;;;;;20.98;50.61;101548.09;7367025;19;20049;-64
2022/07/27 09:26:40;;;;;;;0.10;0.10;;;;;;;20.98;49.68;101546.31;7366496;19;19999;-64
2022/07/27 09:29:09;;;;;;;0.10;0.10;;;;;;;20.97;50.23;101539.28;7362895;19;20012;-64
2022/07/27 09:31:47;;;;;;;0.10;0.10;;;;;;;21.02;49.92;101540.84;7362437;19;20707;-64
2022/07/27 09:34:27;;;;;;;0.10;0.10;;;;;;;21.01;50.50;101544.44;7358525;19;20011;-64
2022/07/27 09:36:54;;;;;;;0.10;0.10;;;;;;;20.99;49.95;101544.53;7362139;19;20736;-64
2022/07/27 09:39:22;;;;;;;0.10;0.10;;;;;;;21.02;50.30;101540.84;7359499;19;20042;-64
2022/07/27 09:42:11;;;;;;;0.10;0.10;;;;;;;21.04;50.23;101536.31;7363598;19;20745;-64
2022/07/27 09:44:39;;;;;;;0.10;0.10;;;;;;;21.08;49.99;101545.81;7259147;19;2004563;-64
2022/07/27 09:47:25;;;;;;;0.10;0.10;;;;;;;21.12;50.60;101544.72;7363653;19;20012;-64
2022/07/27 09:49:51;;;;;;;0.10;0.10;;;;;;;20.97;50.48;101523.34;7362874;19;20015;-64
2022/07/27 09:52:29;;;;;;;0.10;0.10;;;;;;;21.08;50.91;101538.69;7361173;19;20096;-64
2022/07/27 09:55:04;;;;;;;0.10;0.10;;;;;;;21.10;50.97;101534.19;7362521;19;20018;-64
2022/07/27 09:57:29;;;;;;;0.10;0.10;;;;;;;21.11;50.44;101535.03;7360757;19;20531;-64
2022/07/27 10:00:12;;;;;;;0.10;0.10;;;;;;;21.21;51.07;101530.94;7360816;19;22242;-64
2022/07/27 10:02:39;;;;;;;0.00;0.00;;;;;;;21.23;50.35;101529.06;7361918;19;20471;-64
2022/07/27 10:05:06;;;;;;;0.10;0.10;;;;;;;21.30;49.67;101525.19;7360604;19;20018;-64
2022/07/27 10:07:32;;;;;;;0.10;0.10;;;;;;;21.33;50.07;101527.66;7363741;19;20010;-64
2022/07/27 10:09:57;;;;;;;0.10;0.10;;;;;;;21.35;48.99;101533.75;7365020;19;20989;-64
2022/07/27 10:12:23;;;;;;;0.03;0.03;;;;;;;21.35;49.34;101512.50;7360148;19;20733;-64
2022/07/27 10:14:48;;;;;;;0.10;0.10;;;;;;;21.42;50.24;101524.50;7358627;19;20014;-64
2022/07/27 10:17:14;;;;;;;0.10;0.10;;;;;;;21.48;49.87;101524.16;7358555;19;20021;-64
2022/07/27 10:19:49;;;;;;;0.10;0.10;;;;;;;21.59;49.54;101526.22;7360229;19;20010;-64
2022/07/27 10:22:15;;;;;;;0.10;0.10;;;;;;;21.63;49.47;101537.53;7359428;19;20050;-64
2022/07/27 10:24:41;;;;;;;0.10;0.10;;;;;;;21.67;48.79;101528.44;7354764;19;25414;-64
2022/07/27 10:27:26;;;;;;;0.10;0.10;;;;;;;21.76;49.01;101527.94;7359109;19;20724;-64
2022/07/27 10:29:54;;;;;;;0.10;0.10;;;;;;;21.71;48.24;101520.22;7357174;19;20027;-65
2022/07/27 10:32:24;;;;;;;0.10;0.10;;;;;;;21.83;47.74;101531.97;7359146;19;20022;-64
2022/07/27 10:34:50;;;;;;;0.00;0.00;;;;;;;21.85;46.82;101532.75;7358766;19;20017;-65
2022/07/27 10:37:25;;;;;;;0.10;0.10;;;;;;;21.92;48.01;101531.44;7357835;19;20006;-65
2022/07/27 10:42:38;;;;;;;0.10;0.10;;;;;;;21.95;46.97;101527.75;7358971;19;20021;-65
2022/07/27 10:45:12;;;;;;;0.10;0.10;;;;;;;21.99;46.37;101524.81;7358841;19;20031;-64
2022/07/27 10:47:39;;;;;;;0.10;0.10;;;;;;;21.98;45.09;101532.88;7358192;19;20371;-64
2022/07/27 10:50:17;;;;;;;0.10;0.10;;;;;;;22.05;46.31;101517.41;7358106;19;22137;-65
2022/07/27 10:53:03;;;;;;;0.10;0.10;;;;;;;21.89;46.49;101496.19;7362893;19;20006;-64
2022/07/27 10:55:29;;;;;;;0.00;0.00;;;;;;;21.98;45.65;101516.94;7364016;19;20091;-64
2022/07/27 10:58:14;;;;;;;0.10;0.10;;;;;;;22.08;46.52;101517.25;7357704;19;21643;-64
2022/07/27 11:00:48;;;;;;;0.03;0.03;;;;;;;22.11;46.08;101517.13;7360753;19;20034;-64
2022/07/27 11:03:24;;;;;;;0.10;0.10;;;;;;;22.16;45.14;101525.69;7358619;19;20474;-65
2022/07/27 11:06:01;;;;;;;0.10;0.10;;;;;;;22.16;44.31;101513.25;7357611;19;20011;-64
2022/07/27 11:08:28;;;;;;;0.10;0.10;;;;;;;22.16;44.76;101517.72;7353858;19;20018;-64
2022/07/27 11:10:54;;;;;;;0.10;0.10;;;;;;;22.17;44.72;101519.44;7356732;19;20074;-65
2022/07/27 11:13:21;;;;;;;0.10;0.10;;;;;;;22.21;43.09;101518.31;7358399;19;20073;-64
2022/07/27 11:15:54;;;;;;;0.10;0.10;;;;;;;22.21;43.69;101507.66;7360326;19;20018;-64
2022/07/27 11:18:28;;;;;;;0.10;0.10;;;;;;;22.27;44.96;101512.63;7360715;19;20019;-64
2022/07/27 11:21:16;;;;;;;0.10;0.10;;;;;;;22.32;45.21;101515.88;7361215;19;20003;-64
2022/07/27 11:23:44;;;;;;;0.10;0.10;;;;;;;22.29;42.97;101510.72;7361159;19;20010;-64
2022/07/27 11:26:09;;;;;;;;;;;;;;;22.39;46.04;101517.19;7364136;19;20014;-64
2022/07/27 11:28:36;;;;;;;0.05;0.05;;;;;;;22.33;43.04;101511.41;7359718;19;19911;-64
2022/07/27 11:31:02;;;;;;;0.03;0.03;;;;;;;22.32;42.27;101521.19;7354678;19;20002;-64
2022/07/27 11:33:28;;;;;;;0.10;0.10;;;;;;;22.30;43.31;101515.09;7356030;19;20347;-64